Punta Gialla — IWUC — position and weather

sailwx.info

Track history (hours):
 
Tides and Currents Weather Stations Pressure Air Temp Water Temp Dewpoint Dewpoint Depression Visibility Wind Speed Wind Dir Waves Ship Positions

Punta Gialla

Last reported at 2016-Jun-29 19:33 UTC. Time now 2016-Jun-29 20:13 UTC.
Position N 44°24' E 008°54'.

Length 52 m; draft 1.7 m.

Type: Tanker. MMSI: 247077500.

Date/timePositionNaut miles runAvg speedWind from/ knotsBaromVisibWave heightAir tempDewpointWater temp
2016-Jun-29 19:33N 44°24' E 008°54'0 0.0
2016-Jun-29 18:33N 44°24' E 008°54'0 0.0
2016-Jun-29 17:33N 44°24' E 008°54'0 0.0
2016-Jun-29 16:33N 44°24' E 008°54'0 0.0
2016-Jun-29 15:33N 44°24' E 008°54'0 0.0
2016-Jun-29 14:33N 44°24' E 008°54'0 0.0
2016-Jun-29 13:33N 44°24' E 008°54'0 0.1
2016-Jun-29 12:33N 44°24' E 008°54'0 0.0
2016-Jun-29 11:33N 44°24' E 008°54'0 0.1
2016-Jun-29 10:33N 44°24' E 008°54'0 0.0
2016-Jun-29 09:33N 44°24' E 008°54'0 0.0
2016-Jun-29 08:34N 44°24' E 008°54'0 0.0
2016-Jun-29 07:33N 44°24' E 008°54'0 0.0
2016-Jun-29 06:33N 44°24' E 008°54'0 0.0
2016-Jun-29 05:33N 44°24' E 008°54'0 0.0
2016-Jun-29 04:33N 44°24' E 008°54'0 0.0
2016-Jun-29 03:33N 44°24' E 008°54'0 0.0
2016-Jun-29 02:33N 44°24' E 008°54'0 0.0
2016-Jun-29 01:33N 44°24' E 008°54'0 0.0
2016-Jun-29 00:33N 44°24' E 008°54'0 0.0
2016-Jun-28 23:33N 44°24' E 008°54'0 0.0
2016-Jun-28 22:33N 44°24' E 008°54'0 0.0
2016-Jun-28 21:33N 44°24' E 008°54'0 0.0
2016-Jun-28 20:33N 44°24' E 008°54'0 0.0
2016-Jun-28 19:33N 44°24' E 008°54'0 0.0
2016-Jun-28 18:33N 44°24' E 008°54'0 0.4
2016-Jun-28 17:33N 44°24' E 008°55'1 0.7
2016-Jun-28 16:33N 44°25' E 008°55'0 0.0
2016-Jun-28 15:33N 44°25' E 008°55'0 0.1
2016-Jun-28 14:33N 44°24' E 008°55'0 0.0
2016-Jun-28 13:33N 44°24' E 008°55'0 0.0
2016-Jun-28 12:33N 44°24' E 008°55'0 0.4
2016-Jun-28 11:33N 44°24' E 008°54'0 0.0
2016-Jun-28 10:33N 44°24' E 008°54'0 0.0
2016-Jun-28 09:34N 44°24' E 008°54'0 0.0
2016-Jun-28 08:34N 44°24' E 008°54'0 0.0
2016-Jun-28 07:33N 44°24' E 008°54'0 0.0
2016-Jun-28 06:34N 44°24' E 008°54'0 0.0
2016-Jun-28 04:34N 44°24' E 008°54'0 0.0
2016-Jun-28 03:34N 44°24' E 008°54'0 0.0
2016-Jun-28 02:34N 44°24' E 008°54'0 0.0
2016-Jun-28 01:34N 44°24' E 008°54'0 0.0
2016-Jun-28 00:33N 44°24' E 008°54'0 0.0
2016-Jun-27 23:34N 44°24' E 008°54'0 0.0
2016-Jun-27 22:33N 44°24' E 008°54'1 0.7
2016-Jun-27 21:34N 44°24' E 008°53'7 6.7
2016-Jun-27 20:34N 44°20' E 008°46'8 7.6
2016-Jun-27 19:33N 44°16' E 008°37'7 7.2
2016-Jun-27 18:33N 44°16' E 008°27'0 0.0
2016-Jun-27 17:34N 44°16' E 008°27'0 0.0
2016-Jun-27 16:34N 44°16' E 008°27'0 0.0
2016-Jun-27 15:34N 44°16' E 008°27'6 5.6
2016-Jun-27 14:33N 44°16' E 008°35'7 6.7
2016-Jun-27 13:33N 44°19' E 008°44'7 6.6
2016-Jun-27 12:34N 44°23' E 008°51'3 2.9
2016-Jun-27 11:33N 44°24' E 008°54'0 0.0
2016-Jun-27 10:34N 44°24' E 008°54'0 0.0
2016-Jun-27 09:33N 44°24' E 008°54'0 0.1
2016-Jun-27 08:33N 44°24' E 008°54'0 0.0
2016-Jun-27 07:34N 44°24' E 008°54'0 0.0
2016-Jun-27 06:33N 44°24' E 008°54'0 0.0
2016-Jun-27 05:34N 44°24' E 008°54'0 0.0
2016-Jun-27 04:34N 44°24' E 008°54'0 0.0
2016-Jun-27 03:34N 44°24' E 008°54'0 0.0
2016-Jun-27 02:34N 44°24' E 008°54'0 0.0
2016-Jun-27 01:34N 44°24' E 008°54'0 0.0
2016-Jun-27 00:34N 44°24' E 008°54'0 0.0
2016-Jun-26 23:33N 44°24' E 008°54'0 0.0
2016-Jun-26 22:34N 44°24' E 008°54'0 0.0
2016-Jun-26 21:34N 44°24' E 008°54'0 0.0
2016-Jun-26 20:34N 44°24' E 008°54'0 0.0
2016-Jun-26 19:34N 44°24' E 008°54'0 0.0
2016-Jun-26 18:34N 44°24' E 008°54'0 0.0
2016-Jun-26 17:34N 44°24' E 008°54'0 0.0
2016-Jun-26 16:34N 44°24' E 008°54'0 0.0
2016-Jun-26 15:34N 44°24' E 008°54'0 0.0
2016-Jun-26 14:34N 44°24' E 008°54'0 0.0
2016-Jun-26 13:34N 44°24' E 008°54'0 0.0
2016-Jun-26 12:34N 44°24' E 008°54'0 0.0
2016-Jun-26 11:34N 44°24' E 008°54'0 0.0
2016-Jun-26 10:34N 44°24' E 008°54'0 0.0
2016-Jun-26 09:33N 44°24' E 008°54'0 0.0
2016-Jun-26 08:34N 44°24' E 008°54'0 0.0
2016-Jun-26 07:34N 44°24' E 008°54'0 0.0
2016-Jun-26 06:34N 44°24' E 008°54'0 0.0
2016-Jun-26 05:33N 44°24' E 008°54'0 0.0
2016-Jun-26 04:34N 44°24' E 008°54'0 0.0
2016-Jun-26 03:34N 44°24' E 008°54'0 0.0
2016-Jun-26 02:33N 44°24' E 008°54'0 0.0
2016-Jun-26 01:34N 44°24' E 008°54'0 0.0
2016-Jun-26 00:34N 44°24' E 008°54'0 0.0
2016-Jun-25 23:34N 44°24' E 008°54'0 0.0
2016-Jun-25 22:34N 44°24' E 008°54'0 0.0
2016-Jun-25 21:34N 44°24' E 008°54'0 0.0
2016-Jun-25 20:34N 44°24' E 008°54'0 0.0
2016-Jun-25 19:33N 44°24' E 008°54'0 0.0
2016-Jun-25 18:34N 44°24' E 008°54'0 0.0
2016-Jun-25 17:34N 44°24' E 008°54'0 0.0
2016-Jun-25 16:34N 44°24' E 008°54'0 0.0
2016-Jun-25 15:34N 44°24' E 008°54'0 0.0
2016-Jun-25 14:34N 44°24' E 008°54'1 0.6
2016-Jun-25 13:34N 44°25' E 008°55'0 0.0
2016-Jun-25 12:33N 44°25' E 008°55'0 0.1
2016-Jun-25 11:33N 44°25' E 008°55'0 0.1
2016-Jun-25 10:33N 44°25' E 008°55'0 0.0
2016-Jun-25 09:33N 44°25' E 008°55'0 0.0
2016-Jun-25 08:33N 44°25' E 008°55'1 0.7
2016-Jun-25 07:33N 44°24' E 008°54'0 0.0
2016-Jun-25 06:33N 44°24' E 008°54'0 0.0
2016-Jun-25 05:33N 44°24' E 008°54'0 0.0
2016-Jun-25 04:33N 44°24' E 008°54'0 0.0
2016-Jun-25 03:33N 44°24' E 008°54'0 0.0
2016-Jun-25 02:33N 44°24' E 008°54'0 0.0
2016-Jun-25 01:33N 44°24' E 008°54'0 0.0
2016-Jun-25 00:33N 44°24' E 008°54'0 0.0
2016-Jun-24 23:33N 44°24' E 008°54'0 0.0
2016-Jun-24 22:33N 44°24' E 008°54'0 0.0
2016-Jun-24 21:33N 44°24' E 008°54'0 0.0
2016-Jun-24 20:33N 44°24' E 008°54'0 0.0
2016-Jun-24 19:33N 44°24' E 008°54'0 0.0
2016-Jun-24 18:33N 44°24' E 008°54'0 0.0
2016-Jun-24 17:33N 44°24' E 008°54'0 0.0
2016-Jun-24 16:33N 44°24' E 008°54'0 0.0
2016-Jun-24 15:33N 44°24' E 008°54'0 0.0
2016-Jun-24 14:33N 44°24' E 008°54'0 0.0
2016-Jun-24 13:33N 44°24' E 008°54'0 0.0
2016-Jun-24 12:33N 44°24' E 008°54'0 0.0
2016-Jun-24 11:33N 44°24' E 008°54'0 0.0
2016-Jun-24 10:33N 44°24' E 008°54'0 0.0
2016-Jun-24 09:33N 44°24' E 008°54'0 0.0
2016-Jun-24 08:33N 44°24' E 008°54'0 0.0
2016-Jun-24 07:33N 44°24' E 008°54'0 0.0
2016-Jun-24 04:33N 44°24' E 008°54'0 0.0
2016-Jun-24 03:33N 44°24' E 008°54'0 0.0
2016-Jun-24 02:33N 44°24' E 008°54'0 0.0
2016-Jun-24 01:33N 44°24' E 008°54'0 0.0
2016-Jun-24 00:33N 44°24' E 008°54'0 0.0
2016-Jun-23 23:33N 44°24' E 008°54'0 0.0
2016-Jun-23 22:33N 44°24' E 008°54'0 0.0
2016-Jun-23 21:33N 44°24' E 008°54'0 0.0
2016-Jun-23 20:33N 44°24' E 008°54'0 0.0
2016-Jun-23 19:33N 44°24' E 008°54'0 0.0
2016-Jun-23 18:33N 44°24' E 008°54'0 0.0
2016-Jun-23 17:33N 44°24' E 008°54'0 0.0
2016-Jun-23 16:34N 44°24' E 008°54'0 0.0
2016-Jun-23 15:33N 44°24' E 008°54'0 0.4
2016-Jun-23 14:33N 44°24' E 008°55'0 0.0
2016-Jun-23 13:33N 44°24' E 008°55'0 0.0
2016-Jun-23 12:33N 44°24' E 008°55'0 0.0
2016-Jun-23 11:33N 44°24' E 008°55'0 0.4
2016-Jun-23 10:33N 44°24' E 008°55'0 0.0
2016-Jun-22 11:33N 44°24' E 008°54'0 0.0
2016-Jun-22 10:33N 44°24' E 008°54'0 0.0
2016-Jun-22 09:33N 44°24' E 008°54'0 0.0
2016-Jun-22 08:33N 44°24' E 008°54'0 0.0
2016-Jun-22 07:33N 44°24' E 008°54'0 0.0
2016-Jun-22 06:33N 44°24' E 008°54'0 0.0
2016-Jun-22 05:33N 44°24' E 008°54'0 0.0
2016-Jun-22 04:33N 44°24' E 008°54'0 0.0
2016-Jun-22 03:33N 44°24' E 008°54'0 0.0
2016-Jun-22 02:33N 44°24' E 008°54'0 0.0
2016-Jun-22 01:33N 44°24' E 008°54'0 0.0
2016-Jun-22 00:33N 44°24' E 008°54'0 0.1
2016-Jun-21 23:33N 44°24' E 008°54'6 5.6
2016-Jun-21 22:33N 44°25' E 008°47'0 0.2
2016-Jun-21 21:32N 44°25' E 008°47'0 0.0
2016-Jun-21 20:33N 44°25' E 008°47'0 0.0
2016-Jun-21 19:33N 44°25' E 008°47'3 2.6
2016-Jun-21 18:33N 44°24' E 008°50'4 3.7
2016-Jun-21 17:33N 44°24' E 008°55'0 0.0
2016-Jun-21 16:33N 44°24' E 008°55'3 2.8
2016-Jun-21 15:33N 44°24' E 008°51'1 1.3
2016-Jun-21 14:33N 44°25' E 008°50'0 0.0
2016-Jun-21 13:34N 44°25' E 008°50'0 0.1
2016-Jun-21 12:33N 44°25' E 008°50'0 0.0
2016-Jun-21 11:33N 44°25' E 008°50'0 0.0
2016-Jun-21 10:33N 44°25' E 008°50'0 0.1
2016-Jun-21 09:33N 44°25' E 008°50'3 3.0
2016-Jun-21 08:33N 44°24' E 008°54'0 0.2
2016-Jun-21 07:33N 44°24' E 008°54'0 0.0
2016-Jun-21 06:33N 44°24' E 008°54'0 0.0
2016-Jun-21 04:33N 44°24' E 008°54'0 0.0
2016-Jun-21 03:33N 44°24' E 008°54'0 0.0
2016-Jun-21 02:33N 44°24' E 008°54'0 0.0
2016-Jun-21 01:33N 44°24' E 008°54'0 0.0
2016-Jun-21 00:33N 44°24' E 008°54'0 0.0
2016-Jun-20 23:33N 44°24' E 008°54'0 0.0
2016-Jun-20 22:33N 44°24' E 008°54'0 0.0
2016-Jun-20 21:33N 44°24' E 008°54'0 0.0
2016-Jun-20 20:33N 44°24' E 008°54'0 0.0
2016-Jun-20 19:33N 44°24' E 008°54'0 0.0
2016-Jun-20 18:33N 44°24' E 008°54'0 0.0
2016-Jun-20 17:33N 44°24' E 008°54'0 0.1
2016-Jun-20 16:33N 44°24' E 008°54'0 0.0
2016-Jun-20 15:33N 44°24' E 008°54'0 0.1
2016-Jun-20 14:34N 44°24' E 008°54'0 0.0
2016-Jun-20 13:33N 44°24' E 008°54'0 0.4
2016-Jun-20 12:33N 44°24' E 008°55'0 0.0
2016-Jun-20 11:33N 44°24' E 008°55'0 0.0
2016-Jun-20 10:33N 44°24' E 008°55'0 0.0
2016-Jun-20 09:33N 44°24' E 008°55'0 0.3
2016-Jun-20 08:33N 44°24' E 008°54'0 0.0
2016-Jun-20 07:33N 44°24' E 008°54'0 0.0
2016-Jun-20 06:33N 44°24' E 008°54'0 0.0
2016-Jun-20 05:33N 44°24' E 008°54'0 0.0
2016-Jun-20 04:33N 44°24' E 008°54'0 0.0
2016-Jun-20 03:33N 44°24' E 008°54'0 0.0
2016-Jun-20 02:33N 44°24' E 008°54'0 0.0
2016-Jun-20 01:33N 44°24' E 008°54'0 0.0
2016-Jun-20 00:33N 44°24' E 008°54'0 0.0
2016-Jun-19 23:33N 44°24' E 008°54'0 0.0
2016-Jun-19 22:33N 44°24' E 008°54'0 0.0
2016-Jun-19 21:33N 44°24' E 008°54'0 0.0
2016-Jun-19 20:33N 44°24' E 008°54'  
Track history (hours):
 
Tides and Currents Weather Stations Pressure Air Temp Water Temp Dewpoint Dewpoint Depression Visibility Wind Speed Wind Dir Waves Ship Positions

Punta Gialla

Last reported at 2016-Jun-29 19:33 UTC. Time now 2016-Jun-29 20:13 UTC.
Position N 44°24' E 008°54'.

Length 52 m; draft 1.7 m.

Type: Tanker. MMSI: 247077500.

Date/timePositionNaut miles runAvg speedWind from/ knotsBaromVisibWave heightAir tempDewpointWater temp
2016-Jun-29 19:33N 44°24' E 008°54'0 0.0
2016-Jun-29 18:33N 44°24' E 008°54'0 0.0
2016-Jun-29 17:33N 44°24' E 008°54'0 0.0
2016-Jun-29 16:33N 44°24' E 008°54'0 0.0
2016-Jun-29 15:33N 44°24' E 008°54'0 0.0
2016-Jun-29 14:33N 44°24' E 008°54'0 0.0
2016-Jun-29 13:33N 44°24' E 008°54'0 0.1
2016-Jun-29 12:33N 44°24' E 008°54'0 0.0
2016-Jun-29 11:33N 44°24' E 008°54'0 0.1
2016-Jun-29 10:33N 44°24' E 008°54'0 0.0
2016-Jun-29 09:33N 44°24' E 008°54'0 0.0
2016-Jun-29 08:34N 44°24' E 008°54'0 0.0
2016-Jun-29 07:33N 44°24' E 008°54'0 0.0
2016-Jun-29 06:33N 44°24' E 008°54'0 0.0
2016-Jun-29 05:33N 44°24' E 008°54'0 0.0
2016-Jun-29 04:33N 44°24' E 008°54'0 0.0
2016-Jun-29 03:33N 44°24' E 008°54'0 0.0
2016-Jun-29 02:33N 44°24' E 008°54'0 0.0
2016-Jun-29 01:33N 44°24' E 008°54'0 0.0
2016-Jun-29 00:33N 44°24' E 008°54'0 0.0
2016-Jun-28 23:33N 44°24' E 008°54'0 0.0
2016-Jun-28 22:33N 44°24' E 008°54'0 0.0
2016-Jun-28 21:33N 44°24' E 008°54'0 0.0
2016-Jun-28 20:33N 44°24' E 008°54'0 0.0
2016-Jun-28 19:33N 44°24' E 008°54'0 0.0
2016-Jun-28 18:33N 44°24' E 008°54'0 0.4
2016-Jun-28 17:33N 44°24' E 008°55'1 0.7
2016-Jun-28 16:33N 44°25' E 008°55'0 0.0
2016-Jun-28 15:33N 44°25' E 008°55'0 0.1
2016-Jun-28 14:33N 44°24' E 008°55'0 0.0
2016-Jun-28 13:33N 44°24' E 008°55'0 0.0
2016-Jun-28 12:33N 44°24' E 008°55'0 0.4
2016-Jun-28 11:33N 44°24' E 008°54'0 0.0
2016-Jun-28 10:33N 44°24' E 008°54'0 0.0
2016-Jun-28 09:34N 44°24' E 008°54'0 0.0
2016-Jun-28 08:34N 44°24' E 008°54'0 0.0
2016-Jun-28 07:33N 44°24' E 008°54'0 0.0
2016-Jun-28 06:34N 44°24' E 008°54'0 0.0
2016-Jun-28 04:34N 44°24' E 008°54'0 0.0
2016-Jun-28 03:34N 44°24' E 008°54'0 0.0
2016-Jun-28 02:34N 44°24' E 008°54'0 0.0
2016-Jun-28 01:34N 44°24' E 008°54'0 0.0
2016-Jun-28 00:33N 44°24' E 008°54'0 0.0
2016-Jun-27 23:34N 44°24' E 008°54'0 0.0
2016-Jun-27 22:33N 44°24' E 008°54'1 0.7
2016-Jun-27 21:34N 44°24' E 008°53'7 6.7
2016-Jun-27 20:34N 44°20' E 008°46'8 7.6
2016-Jun-27 19:33N 44°16' E 008°37'7 7.2
2016-Jun-27 18:33N 44°16' E 008°27'0 0.0
2016-Jun-27 17:34N 44°16' E 008°27'0 0.0
2016-Jun-27 16:34N 44°16' E 008°27'0 0.0
2016-Jun-27 15:34N 44°16' E 008°27'6 5.6
2016-Jun-27 14:33N 44°16' E 008°35'7 6.7
2016-Jun-27 13:33N 44°19' E 008°44'7 6.6
2016-Jun-27 12:34N 44°23' E 008°51'3 2.9
2016-Jun-27 11:33N 44°24' E 008°54'0 0.0
2016-Jun-27 10:34N 44°24' E 008°54'0 0.0
2016-Jun-27 09:33N 44°24' E 008°54'0 0.1
2016-Jun-27 08:33N 44°24' E 008°54'0 0.0
2016-Jun-27 07:34N 44°24' E 008°54'0 0.0
2016-Jun-27 06:33N 44°24' E 008°54'0 0.0
2016-Jun-27 05:34N 44°24' E 008°54'0 0.0
2016-Jun-27 04:34N 44°24' E 008°54'0 0.0
2016-Jun-27 03:34N 44°24' E 008°54'0 0.0
2016-Jun-27 02:34N 44°24' E 008°54'0 0.0
2016-Jun-27 01:34N 44°24' E 008°54'0 0.0
2016-Jun-27 00:34N 44°24' E 008°54'0 0.0
2016-Jun-26 23:33N 44°24' E 008°54'0 0.0
2016-Jun-26 22:34N 44°24' E 008°54'0 0.0
2016-Jun-26 21:34N 44°24' E 008°54'0 0.0
2016-Jun-26 20:34N 44°24' E 008°54'0 0.0
2016-Jun-26 19:34N 44°24' E 008°54'0 0.0
2016-Jun-26 18:34N 44°24' E 008°54'0 0.0
2016-Jun-26 17:34N 44°24' E 008°54'0 0.0
2016-Jun-26 16:34N 44°24' E 008°54'0 0.0
2016-Jun-26 15:34N 44°24' E 008°54'0 0.0
2016-Jun-26 14:34N 44°24' E 008°54'0 0.0
2016-Jun-26 13:34N 44°24' E 008°54'0 0.0
2016-Jun-26 12:34N 44°24' E 008°54'0 0.0
2016-Jun-26 11:34N 44°24' E 008°54'0 0.0
2016-Jun-26 10:34N 44°24' E 008°54'0 0.0
2016-Jun-26 09:33N 44°24' E 008°54'0 0.0
2016-Jun-26 08:34N 44°24' E 008°54'0 0.0
2016-Jun-26 07:34N 44°24' E 008°54'0 0.0
2016-Jun-26 06:34N 44°24' E 008°54'0 0.0
2016-Jun-26 05:33N 44°24' E 008°54'0 0.0
2016-Jun-26 04:34N 44°24' E 008°54'0 0.0
2016-Jun-26 03:34N 44°24' E 008°54'0 0.0
2016-Jun-26 02:33N 44°24' E 008°54'0 0.0
2016-Jun-26 01:34N 44°24' E 008°54'0 0.0
2016-Jun-26 00:34N 44°24' E 008°54'0 0.0
2016-Jun-25 23:34N 44°24' E 008°54'0 0.0
2016-Jun-25 22:34N 44°24' E 008°54'0 0.0
2016-Jun-25 21:34N 44°24' E 008°54'0 0.0
2016-Jun-25 20:34N 44°24' E 008°54'0 0.0
2016-Jun-25 19:33N 44°24' E 008°54'0 0.0
2016-Jun-25 18:34N 44°24' E 008°54'0 0.0
2016-Jun-25 17:34N 44°24' E 008°54'0 0.0
2016-Jun-25 16:34N 44°24' E 008°54'0 0.0
2016-Jun-25 15:34N 44°24' E 008°54'0 0.0
2016-Jun-25 14:34N 44°24' E 008°54'1 0.6
2016-Jun-25 13:34N 44°25' E 008°55'0 0.0
2016-Jun-25 12:33N 44°25' E 008°55'0 0.1
2016-Jun-25 11:33N 44°25' E 008°55'0 0.1
2016-Jun-25 10:33N 44°25' E 008°55'0 0.0
2016-Jun-25 09:33N 44°25' E 008°55'0 0.0
2016-Jun-25 08:33N 44°25' E 008°55'1 0.7
2016-Jun-25 07:33N 44°24' E 008°54'0 0.0
2016-Jun-25 06:33N 44°24' E 008°54'0 0.0
2016-Jun-25 05:33N 44°24' E 008°54'0 0.0
2016-Jun-25 04:33N 44°24' E 008°54'0 0.0
2016-Jun-25 03:33N 44°24' E 008°54'0 0.0
2016-Jun-25 02:33N 44°24' E 008°54'0 0.0
2016-Jun-25 01:33N 44°24' E 008°54'0 0.0
2016-Jun-25 00:33N 44°24' E 008°54'0 0.0
2016-Jun-24 23:33N 44°24' E 008°54'0 0.0
2016-Jun-24 22:33N 44°24' E 008°54'0 0.0
2016-Jun-24 21:33N 44°24' E 008°54'0 0.0
2016-Jun-24 20:33N 44°24' E 008°54'0 0.0
2016-Jun-24 19:33N 44°24' E 008°54'0 0.0
2016-Jun-24 18:33N 44°24' E 008°54'0 0.0
2016-Jun-24 17:33N 44°24' E 008°54'0 0.0
2016-Jun-24 16:33N 44°24' E 008°54'0 0.0
2016-Jun-24 15:33N 44°24' E 008°54'0 0.0
2016-Jun-24 14:33N 44°24' E 008°54'0 0.0
2016-Jun-24 13:33N 44°24' E 008°54'0 0.0
2016-Jun-24 12:33N 44°24' E 008°54'0 0.0
2016-Jun-24 11:33N 44°24' E 008°54'0 0.0
2016-Jun-24 10:33N 44°24' E 008°54'0 0.0
2016-Jun-24 09:33N 44°24' E 008°54'0 0.0
2016-Jun-24 08:33N 44°24' E 008°54'0 0.0
2016-Jun-24 07:33N 44°24' E 008°54'0 0.0
2016-Jun-24 04:33N 44°24' E 008°54'0 0.0
2016-Jun-24 03:33N 44°24' E 008°54'0 0.0
2016-Jun-24 02:33N 44°24' E 008°54'0 0.0
2016-Jun-24 01:33N 44°24' E 008°54'0 0.0
2016-Jun-24 00:33N 44°24' E 008°54'0 0.0
2016-Jun-23 23:33N 44°24' E 008°54'0 0.0
2016-Jun-23 22:33N 44°24' E 008°54'0 0.0
2016-Jun-23 21:33N 44°24' E 008°54'0 0.0
2016-Jun-23 20:33N 44°24' E 008°54'0 0.0
2016-Jun-23 19:33N 44°24' E 008°54'0 0.0
2016-Jun-23 18:33N 44°24' E 008°54'0 0.0
2016-Jun-23 17:33N 44°24' E 008°54'0 0.0
2016-Jun-23 16:34N 44°24' E 008°54'0 0.0
2016-Jun-23 15:33N 44°24' E 008°54'0 0.4
2016-Jun-23 14:33N 44°24' E 008°55'0 0.0
2016-Jun-23 13:33N 44°24' E 008°55'0 0.0
2016-Jun-23 12:33N 44°24' E 008°55'0 0.0
2016-Jun-23 11:33N 44°24' E 008°55'0 0.4
2016-Jun-23 10:33N 44°24' E 008°55'0 0.0
2016-Jun-22 11:33N 44°24' E 008°54'0 0.0
2016-Jun-22 10:33N 44°24' E 008°54'0 0.0
2016-Jun-22 09:33N 44°24' E 008°54'0 0.0
2016-Jun-22 08:33N 44°24' E 008°54'0 0.0
2016-Jun-22 07:33N 44°24' E 008°54'0 0.0
2016-Jun-22 06:33N 44°24' E 008°54'0 0.0
2016-Jun-22 05:33N 44°24' E 008°54'0 0.0
2016-Jun-22 04:33N 44°24' E 008°54'0 0.0
2016-Jun-22 03:33N 44°24' E 008°54'0 0.0
2016-Jun-22 02:33N 44°24' E 008°54'0 0.0
2016-Jun-22 01:33N 44°24' E 008°54'0 0.0
2016-Jun-22 00:33N 44°24' E 008°54'0 0.1
2016-Jun-21 23:33N 44°24' E 008°54'6 5.6
2016-Jun-21 22:33N 44°25' E 008°47'0 0.2
2016-Jun-21 21:32N 44°25' E 008°47'0 0.0
2016-Jun-21 20:33N 44°25' E 008°47'0 0.0
2016-Jun-21 19:33N 44°25' E 008°47'3 2.6
2016-Jun-21 18:33N 44°24' E 008°50'4 3.7
2016-Jun-21 17:33N 44°24' E 008°55'0 0.0
2016-Jun-21 16:33N 44°24' E 008°55'3 2.8
2016-Jun-21 15:33N 44°24' E 008°51'1 1.3
2016-Jun-21 14:33N 44°25' E 008°50'0 0.0
2016-Jun-21 13:34N 44°25' E 008°50'0 0.1
2016-Jun-21 12:33N 44°25' E 008°50'0 0.0
2016-Jun-21 11:33N 44°25' E 008°50'0 0.0
2016-Jun-21 10:33N 44°25' E 008°50'0 0.1
2016-Jun-21 09:33N 44°25' E 008°50'3 3.0
2016-Jun-21 08:33N 44°24' E 008°54'0 0.2
2016-Jun-21 07:33N 44°24' E 008°54'0 0.0
2016-Jun-21 06:33N 44°24' E 008°54'0 0.0
2016-Jun-21 04:33N 44°24' E 008°54'0 0.0
2016-Jun-21 03:33N 44°24' E 008°54'0 0.0
2016-Jun-21 02:33N 44°24' E 008°54'0 0.0
2016-Jun-21 01:33N 44°24' E 008°54'0 0.0
2016-Jun-21 00:33N 44°24' E 008°54'0 0.0
2016-Jun-20 23:33N 44°24' E 008°54'0 0.0
2016-Jun-20 22:33N 44°24' E 008°54'0 0.0
2016-Jun-20 21:33N 44°24' E 008°54'0 0.0
2016-Jun-20 20:33N 44°24' E 008°54'0 0.0
2016-Jun-20 19:33N 44°24' E 008°54'0 0.0
2016-Jun-20 18:33N 44°24' E 008°54'0 0.0
2016-Jun-20 17:33N 44°24' E 008°54'0 0.1
2016-Jun-20 16:33N 44°24' E 008°54'0 0.0
2016-Jun-20 15:33N 44°24' E 008°54'0 0.1
2016-Jun-20 14:34N 44°24' E 008°54'0 0.0
2016-Jun-20 13:33N 44°24' E 008°54'0 0.4
2016-Jun-20 12:33N 44°24' E 008°55'0 0.0
2016-Jun-20 11:33N 44°24' E 008°55'0 0.0
2016-Jun-20 10:33N 44°24' E 008°55'0 0.0
2016-Jun-20 09:33N 44°24' E 008°55'0 0.3
2016-Jun-20 08:33N 44°24' E 008°54'0 0.0
2016-Jun-20 07:33N 44°24' E 008°54'0 0.0
2016-Jun-20 06:33N 44°24' E 008°54'0 0.0
2016-Jun-20 05:33N 44°24' E 008°54'0 0.0
2016-Jun-20 04:33N 44°24' E 008°54'0 0.0
2016-Jun-20 03:33N 44°24' E 008°54'0 0.0
2016-Jun-20 02:33N 44°24' E 008°54'0 0.0
2016-Jun-20 01:33N 44°24' E 008°54'0 0.0
2016-Jun-20 00:33N 44°24' E 008°54'0 0.0
2016-Jun-19 23:33N 44°24' E 008°54'0 0.0
2016-Jun-19 22:33N 44°24' E 008°54'0 0.0
2016-Jun-19 21:33N 44°24' E 008°54'0 0.0
2016-Jun-19 20:33N 44°24' E 008°54'  

Dump ship's entire track history